createdAt,value
2019-05-22T00:04:25.507Z,43.17
2019-05-22T00:07:03.867Z,42.85
2019-05-22T00:12:19.361Z,39.30
2019-05-22T00:14:54.730Z,44.83
2019-05-22T00:20:07.276Z,42.78
2019-05-22T00:22:43.675Z,41.90
2019-05-22T00:25:21.287Z,42.10
2019-05-22T00:27:56.294Z,42.10
2019-05-22T00:30:36.442Z,42.90
2019-05-22T00:33:12.283Z,45.00
2019-05-22T00:35:47.616Z,43.63
2019-05-22T00:38:23.858Z,46.88
2019-05-22T00:43:31.281Z,44.00
2019-05-22T00:46:08.272Z,44.07
2019-05-22T00:48:44.942Z,42.23
2019-05-22T00:51:36.669Z,40.70
2019-05-22T00:54:38.717Z,37.93
2019-05-22T01:00:34.807Z,36.53
2019-05-22T01:03:10.283Z,40.75
2019-05-22T01:05:45.267Z,36.27
2019-05-22T01:08:21.342Z,43.83
2019-05-22T01:10:57.703Z,41.10
2019-05-22T01:16:10.683Z,34.90
2019-05-22T01:18:47.275Z,41.18
2019-05-22T01:21:25.281Z,45.53
2019-05-22T01:24:00.627Z,38.10
2019-05-22T01:26:36.265Z,44.88
2019-05-22T01:29:11.939Z,44.40
2019-05-22T01:34:30.276Z,47.57
2019-05-22T01:37:10.779Z,50.60
2019-05-22T01:42:46.566Z,45.55
2019-05-22T01:45:25.289Z,52.23
2019-05-22T01:48:09.278Z,53.60
2019-05-22T01:50:49.265Z,55.80
2019-05-22T01:53:27.600Z,55.10
2019-05-22T01:56:08.763Z,53.60
2019-05-22T02:01:24.274Z,52.00
2019-05-22T02:04:02.328Z,46.02
2019-05-22T02:06:37.550Z,52.67
2019-05-22T02:09:41.277Z,45.83
2019-05-22T02:12:36.276Z,45.17
2019-05-22T02:15:11.564Z,37.55
2019-05-22T02:17:46.280Z,45.03
2019-05-22T02:20:21.270Z,39.27
2019-05-22T02:22:55.693Z,38.57
2019-05-22T02:25:30.255Z,45.10
2019-05-22T02:28:09.500Z,42.93
2019-05-22T02:30:45.717Z,43.08
2019-05-22T02:35:55.090Z,44.77
2019-05-22T02:38:29.675Z,39.57
2019-05-22T02:41:48.941Z,37.77
2019-05-22T02:44:25.529Z,40.85
2019-05-22T02:47:18.280Z,39.13
2019-05-22T02:49:40.280Z,41.97
2019-05-22T02:52:15.520Z,34.90
2019-05-22T02:54:51.253Z,35.95
2019-05-22T02:57:28.555Z,35.40
2019-05-22T03:00:03.371Z,35.03
2019-05-22T03:02:51.364Z,34.53
2019-05-22T03:05:25.938Z,35.83
2019-05-22T03:10:33.307Z,36.08
2019-05-22T03:13:11.301Z,35.95
2019-05-22T03:15:45.787Z,39.23
2019-05-22T03:20:56.775Z,33.50
2019-05-22T03:26:15.283Z,33.50
2019-05-22T03:28:49.983Z,32.97
2019-05-22T03:31:24.720Z,32.65
2019-05-22T03:36:31.942Z,27.45
2019-05-22T03:39:08.276Z,28.50
2019-05-22T03:41:43.273Z,29.07
2019-05-22T03:44:20.097Z,26.63
2019-05-22T03:46:59.292Z,25.20
2019-05-22T03:49:32.559Z,26.07
2019-05-22T03:52:09.342Z,29.17
2019-05-22T03:54:44.118Z,27.73
2019-05-22T03:57:18.686Z,31.40
2019-05-22T03:59:52.971Z,26.85
2019-05-22T04:02:28.757Z,26.62
2019-05-22T04:07:39.397Z,25.70
2019-05-22T04:10:14.292Z,22.13
2019-05-22T04:12:48.787Z,23.40
2019-05-22T04:18:02.322Z,22.15
2019-05-22T04:20:36.858Z,22.10
2019-05-22T04:23:11.275Z,21.70
2019-05-22T04:25:46.271Z,23.53
2019-05-22T04:28:20.940Z,24.50
2019-05-22T04:30:59.804Z,22.98
2019-05-22T04:33:32.945Z,22.30
2019-05-22T04:36:10.358Z,23.83
2019-05-22T04:38:44.905Z,24.55
2019-05-22T04:43:53.929Z,21.95
2019-05-22T04:46:28.124Z,23.70
2019-05-22T04:49:03.462Z,22.00
2019-05-22T04:51:39.400Z,21.13
2019-05-22T04:54:13.990Z,22.87
2019-05-22T04:56:49.280Z,24.97
2019-05-22T05:01:58.745Z,23.00
2019-05-22T05:04:33.283Z,25.47
2019-05-22T05:07:08.780Z,24.70
2019-05-22T05:09:45.277Z,25.57
2019-05-22T05:12:20.272Z,29.57
2019-05-22T05:14:54.728Z,25.47
2019-05-22T05:17:29.101Z,28.00
2019-05-22T05:20:03.658Z,23.63
2019-05-22T05:22:46.783Z,25.77
2019-05-22T05:27:56.291Z,20.40
2019-05-22T05:30:32.271Z,20.70
2019-05-22T05:33:06.835Z,21.82
2019-05-22T05:38:16.274Z,27.00
2019-05-22T05:40:51.279Z,20.60
2019-05-22T05:43:26.479Z,25.03
2019-05-22T05:46:02.701Z,23.83
2019-05-22T05:48:38.949Z,26.25
2019-05-22T05:54:19.096Z,27.27
2019-05-22T05:56:54.278Z,26.23
2019-05-22T05:59:31.291Z,25.00
2019-05-22T06:02:07.284Z,31.00
2019-05-22T06:04:42.651Z,32.47
2019-05-22T06:07:28.284Z,31.10
2019-05-22T06:10:50.951Z,33.33
2019-05-22T06:13:25.635Z,31.95
2019-05-22T06:17:31.669Z,33.53
2019-05-22T06:20:12.279Z,32.42
2019-05-22T06:23:29.991Z,32.65
2019-05-22T06:26:05.298Z,36.68
2019-05-22T06:28:44.334Z,28.73
2019-05-22T06:31:36.939Z,31.12
2019-05-22T06:34:11.738Z,35.92
2019-05-22T06:39:19.757Z,32.00
2019-05-22T06:41:54.338Z,32.45
2019-05-22T06:44:37.274Z,30.55
2019-05-22T06:47:18.687Z,31.33
2019-05-22T06:49:58.303Z,35.73
2019-05-22T06:52:33.471Z,31.20
2019-05-22T06:55:09.250Z,31.27
2019-05-22T06:57:43.761Z,34.47
2019-05-22T07:00:22.135Z,29.77
2019-05-22T07:02:57.313Z,27.97
2019-05-22T07:05:32.282Z,32.93
2019-05-22T07:08:07.572Z,31.93
2019-05-22T07:10:43.532Z,28.38
2019-05-22T07:13:18.329Z,32.00
2019-05-22T07:15:54.279Z,32.08
2019-05-22T07:18:32.061Z,37.95
2019-05-22T07:21:08.307Z,32.00
2019-05-22T07:23:43.272Z,34.00
2019-05-22T07:26:18.332Z,30.37
2019-05-22T07:28:53.315Z,25.67
2019-05-22T07:31:29.083Z,26.30
2019-05-22T07:34:04.243Z,22.07
2019-05-22T07:36:38.934Z,24.70
2019-05-22T07:39:13.663Z,22.85
2019-05-22T07:41:48.363Z,22.22
2019-05-22T07:44:23.278Z,23.63
2019-05-22T07:46:57.926Z,24.80
2019-05-22T07:49:32.678Z,25.00
2019-05-22T07:52:11.944Z,23.73
2019-05-22T07:54:47.128Z,26.60
2019-05-22T07:57:25.623Z,22.13
2019-05-22T08:00:00.280Z,26.55
2019-05-22T08:02:40.287Z,20.87
2019-05-22T08:05:16.341Z,22.90
2019-05-22T08:07:52.344Z,20.27
2019-05-22T08:10:29.795Z,21.97
2019-05-22T08:15:39.269Z,20.95
2019-05-22T08:18:14.277Z,20.37
2019-05-22T08:20:48.748Z,22.60
2019-05-22T08:23:23.639Z,20.75
2019-05-22T08:26:00.309Z,25.23
2019-05-22T08:28:35.274Z,28.13
2019-05-22T08:31:13.594Z,23.33
2019-05-22T08:33:48.674Z,23.27
2019-05-22T08:36:23.666Z,29.33
2019-05-22T08:38:58.296Z,26.42
2019-05-22T08:41:39.932Z,24.13
2019-05-22T08:44:17.953Z,24.20
2019-05-22T08:46:54.108Z,20.87
2019-05-22T08:49:29.670Z,21.17
2019-05-22T08:52:04.939Z,21.73
2019-05-22T08:54:39.415Z,21.65
2019-05-22T08:57:16.315Z,23.10
2019-05-22T08:59:51.944Z,30.80
2019-05-22T09:05:00.906Z,27.57
2019-05-22T09:07:36.290Z,34.00
2019-05-22T09:10:11.584Z,33.20
2019-05-22T09:12:46.285Z,30.43
2019-05-22T09:15:21.286Z,33.78
2019-05-22T09:17:56.271Z,39.45
2019-05-22T09:20:46.417Z,31.33
2019-05-22T09:23:08.687Z,33.48
2019-05-22T09:28:16.631Z,32.10
2019-05-22T09:30:51.302Z,40.27
2019-05-22T09:33:26.280Z,42.55
2019-05-22T09:36:00.686Z,38.77
2019-05-22T09:38:35.281Z,35.85
2019-05-22T09:41:09.936Z,37.83
2019-05-22T09:43:44.279Z,38.20
2019-05-22T09:46:19.567Z,30.73
2019-05-22T09:48:54.278Z,38.02
2019-05-22T09:51:29.310Z,36.70
2019-05-22T09:54:04.278Z,28.10
2019-05-22T09:56:39.321Z,31.57
2019-05-22T09:59:14.279Z,30.87
2019-05-22T10:01:48.769Z,27.03
2019-05-22T10:04:23.267Z,28.30
2019-05-22T10:06:57.785Z,28.98
2019-05-22T10:12:08.299Z,28.80
2019-05-22T10:14:43.340Z,30.00
2019-05-22T10:17:40.123Z,28.43
2019-05-22T10:20:15.443Z,28.00
2019-05-22T10:22:50.109Z,34.98
2019-05-22T10:25:25.252Z,29.37
2019-05-22T10:31:36.847Z,24.40
2019-05-22T10:34:11.641Z,25.00
2019-05-22T10:36:46.614Z,30.07
2019-05-22T10:39:24.641Z,24.90
2019-05-22T10:41:57.909Z,23.60
2019-05-22T10:44:32.666Z,22.22
2019-05-22T10:47:09.413Z,20.72
2019-05-22T10:49:44.269Z,22.13
2019-05-22T10:52:19.329Z,17.27
2019-05-22T10:54:56.107Z,19.77
2019-05-22T10:57:31.712Z,19.67
2019-05-22T11:00:07.931Z,14.50
2019-05-22T11:02:42.927Z,22.47
2019-05-22T11:05:18.277Z,12.70
2019-05-22T11:07:53.333Z,15.50
2019-05-22T11:10:28.462Z,16.12
2019-05-22T11:13:03.679Z,14.80
2019-05-22T11:15:39.641Z,14.35
2019-05-22T11:18:14.274Z,13.17
2019-05-22T11:20:48.721Z,16.02
2019-05-22T11:23:23.358Z,17.27
2019-05-22T11:25:58.276Z,13.68
2019-05-22T11:28:33.571Z,15.23
2019-05-22T11:31:08.877Z,20.90
2019-05-22T11:33:43.714Z,11.70
2019-05-22T11:36:19.285Z,15.77
2019-05-22T11:38:53.761Z,15.20
2019-05-22T11:44:03.286Z,15.40
2019-05-22T11:46:38.319Z,11.22
2019-05-22T11:49:13.318Z,12.88
2019-05-22T11:51:48.283Z,12.93
2019-05-22T11:54:23.766Z,12.25
2019-05-22T11:56:57.952Z,12.95
2019-05-22T11:59:32.891Z,13.30
2019-05-22T12:04:48.007Z,15.60
2019-05-22T12:07:20.357Z,13.18
2019-05-22T12:09:55.276Z,14.97
2019-05-22T12:12:30.060Z,12.67
2019-05-22T12:15:06.363Z,14.75
2019-05-22T12:17:42.133Z,16.95
2019-05-22T12:20:17.690Z,14.30
2019-05-22T12:22:52.268Z,16.00
2019-05-22T12:25:28.275Z,11.13
2019-05-22T12:28:03.910Z,16.55
2019-05-22T12:30:39.187Z,11.70
2019-05-22T12:33:14.599Z,11.55
2019-05-22T12:35:51.115Z,17.90
2019-05-22T12:38:27.585Z,13.47
2019-05-22T12:41:01.950Z,13.13
2019-05-22T12:43:37.183Z,13.53
2019-05-22T12:46:13.597Z,12.05
2019-05-22T12:48:48.735Z,14.23
2019-05-22T12:51:23.657Z,10.53
2019-05-22T12:53:58.661Z,11.57
2019-05-22T12:56:33.947Z,11.85
2019-05-22T12:59:09.937Z,10.63
2019-05-22T13:01:46.268Z,11.70
2019-05-22T13:04:20.763Z,13.13
2019-05-22T13:09:32.933Z,11.13
2019-05-22T13:12:09.290Z,12.70
2019-05-22T13:14:45.413Z,12.55
2019-05-22T13:17:22.074Z,12.03
2019-05-22T13:19:56.782Z,10.40
2019-05-22T13:25:06.854Z,11.80
2019-05-22T13:27:41.929Z,13.60
2019-05-22T13:30:18.635Z,10.23
2019-05-22T13:35:38.691Z,9.33
2019-05-22T13:38:14.680Z,10.40
2019-05-22T13:40:49.953Z,8.03
2019-05-22T13:43:25.740Z,9.87
2019-05-22T13:48:34.319Z,9.93
2019-05-22T13:51:11.273Z,10.10
2019-05-22T13:53:47.606Z,9.67
2019-05-22T13:56:25.562Z,12.13
2019-05-22T13:59:00.272Z,10.30
2019-05-22T14:01:35.305Z,10.55
2019-05-22T14:04:10.120Z,8.67
2019-05-22T14:06:46.291Z,8.53
2019-05-22T14:09:42.338Z,12.00
2019-05-22T14:12:17.158Z,10.23
2019-05-22T14:14:51.699Z,10.60
2019-05-22T14:17:26.352Z,10.33
2019-05-22T14:21:51.297Z,11.08
2019-05-22T14:24:20.740Z,9.93
2019-05-22T14:26:55.321Z,13.00
2019-05-22T14:29:30.270Z,12.20
2019-05-22T14:32:05.695Z,11.67
2019-05-22T14:34:40.402Z,15.50
2019-05-22T14:37:15.654Z,10.82
2019-05-22T14:39:50.788Z,13.03
2019-05-22T14:45:00.287Z,9.77
2019-05-22T14:47:37.578Z,10.15
2019-05-22T14:50:13.650Z,11.30
2019-05-22T14:52:48.783Z,11.17
2019-05-22T14:57:58.357Z,13.38
2019-05-22T15:00:34.090Z,11.25
2019-05-22T15:03:08.917Z,10.03
2019-05-22T15:05:43.827Z,15.18
2019-05-22T15:10:51.717Z,16.20
2019-05-22T15:16:00.342Z,17.40
2019-05-22T15:18:35.265Z,15.77
2019-05-22T15:21:11.737Z,13.50
2019-05-22T15:26:20.941Z,19.50
2019-05-22T15:28:55.648Z,17.87
2019-05-22T15:31:30.538Z,20.68
2019-05-22T15:34:06.330Z,19.82
2019-05-22T15:36:41.278Z,18.17
2019-05-22T15:39:20.769Z,17.50
2019-05-22T15:44:30.583Z,17.43
2019-05-22T15:47:06.288Z,17.37
2019-05-22T15:49:45.677Z,15.78
2019-05-22T15:52:20.497Z,21.20
2019-05-22T15:54:55.273Z,18.82
2019-05-22T15:57:29.728Z,18.52
2019-05-22T16:00:08.346Z,26.27
2019-05-22T16:02:46.552Z,28.73
2019-05-22T16:05:23.398Z,22.27
2019-05-22T16:07:58.470Z,21.57
2019-05-22T16:10:32.946Z,18.77
2019-05-22T16:13:08.531Z,18.37
2019-05-22T16:15:44.274Z,18.80
2019-05-22T16:18:22.496Z,32.28
2019-05-22T16:20:59.318Z,21.68
2019-05-22T16:23:36.165Z,19.25
2019-05-22T16:26:12.032Z,19.20
2019-05-22T16:28:49.944Z,17.95
2019-05-22T16:31:25.285Z,21.40
2019-05-22T16:34:00.279Z,18.43
2019-05-22T16:36:35.625Z,19.20
2019-05-22T16:39:12.947Z,25.67
2019-05-22T16:41:47.790Z,17.90
2019-05-22T16:44:22.102Z,17.57
2019-05-22T16:47:02.805Z,18.10
2019-05-22T16:52:13.550Z,17.53
2019-05-22T16:54:49.325Z,30.90
2019-05-22T16:57:24.300Z,35.85
2019-05-22T17:00:00.158Z,21.00
2019-05-22T17:02:38.273Z,13.65
2019-05-22T17:05:14.313Z,13.73
2019-05-22T17:07:48.784Z,14.33
2019-05-22T17:12:57.946Z,15.47
2019-05-22T17:15:33.121Z,13.30
2019-05-22T17:18:10.311Z,13.93
2019-05-22T17:20:45.286Z,14.47
2019-05-22T17:23:19.767Z,14.07
2019-05-22T17:25:53.906Z,13.25
2019-05-22T17:28:28.967Z,15.55
2019-05-22T17:31:04.455Z,16.15
2019-05-22T17:33:39.669Z,18.10
2019-05-22T17:41:21.300Z,15.95
2019-05-22T17:43:56.944Z,16.67
2019-05-22T17:46:32.250Z,14.83
2019-05-22T17:49:07.425Z,18.48
2019-05-22T17:51:42.281Z,13.95
2019-05-22T17:54:18.728Z,14.80
2019-05-22T17:56:53.720Z,21.33
2019-05-22T17:59:28.428Z,15.87
2019-05-22T18:02:04.878Z,14.65
2019-05-22T18:04:39.696Z,15.53
2019-05-22T18:07:14.528Z,14.98
2019-05-22T18:09:49.106Z,13.22
2019-05-22T18:12:25.175Z,14.13
2019-05-22T18:15:00.381Z,13.87
2019-05-22T18:17:36.301Z,14.20
2019-05-22T18:20:12.783Z,15.17
2019-05-22T18:25:20.681Z,13.30
2019-05-22T18:27:55.966Z,14.20
2019-05-22T18:30:31.288Z,13.57
2019-05-22T18:33:06.561Z,14.85
2019-05-22T18:35:41.398Z,18.40
2019-05-22T18:38:16.329Z,18.97
2019-05-22T18:40:50.793Z,12.18
2019-05-22T18:45:58.290Z,15.10
2019-05-22T18:48:33.333Z,12.00
2019-05-22T18:51:09.302Z,15.85
2019-05-22T18:53:44.299Z,15.95
2019-05-22T18:56:19.107Z,13.13
2019-05-22T18:58:54.283Z,13.03
2019-05-22T19:01:28.964Z,13.65
2019-05-22T19:04:03.953Z,12.40
2019-05-22T19:06:38.504Z,14.20
2019-05-22T19:09:16.286Z,16.90
2019-05-22T19:11:51.015Z,15.83
2019-05-22T19:14:26.000Z,14.00
2019-05-22T19:17:00.762Z,13.70
2019-05-22T19:19:36.325Z,14.60
2019-05-22T19:22:11.302Z,13.07
2019-05-22T19:24:46.317Z,13.90
2019-05-22T19:27:21.105Z,13.18
2019-05-22T19:29:55.747Z,12.00
2019-05-22T19:32:29.960Z,13.40
2019-05-22T19:35:05.790Z,12.18
2019-05-22T19:37:41.164Z,13.07
2019-05-22T19:40:16.320Z,10.77
2019-05-22T19:42:50.903Z,14.63
2019-05-22T19:45:25.699Z,13.93
2019-05-22T19:50:33.338Z,10.80
2019-05-22T19:53:18.769Z,16.57
2019-05-22T19:55:45.868Z,11.30
2019-05-22T20:00:55.334Z,12.35
2019-05-22T20:03:30.512Z,14.40
2019-05-22T20:06:05.779Z,12.47
2019-05-22T20:11:14.956Z,10.10
2019-05-22T20:13:49.635Z,13.53
2019-05-22T20:18:57.331Z,11.93
2019-05-22T20:21:32.404Z,10.87
2019-05-22T20:24:07.570Z,9.25
2019-05-22T20:26:42.399Z,9.63
2019-05-22T20:29:18.307Z,8.90
2019-05-22T20:31:53.280Z,11.27
2019-05-22T20:34:27.930Z,11.13
2019-05-22T20:37:02.700Z,10.25
2019-05-22T20:39:37.534Z,10.35
2019-05-22T20:42:12.292Z,9.63
2019-05-22T20:44:47.318Z,10.50
2019-05-22T20:47:25.642Z,9.20
2019-05-22T20:50:00.317Z,9.83
2019-05-22T20:52:36.668Z,9.87
2019-05-22T20:55:12.715Z,8.87
2019-05-22T21:00:22.289Z,9.13
2019-05-22T21:03:04.345Z,9.43
2019-05-22T21:05:40.449Z,8.67
2019-05-22T21:08:18.373Z,9.13
2019-05-22T21:10:54.570Z,10.63
2019-05-22T21:13:28.954Z,9.83
2019-05-22T21:16:03.950Z,10.10
2019-05-22T21:21:18.680Z,8.90
2019-05-22T21:24:08.958Z,9.13
2019-05-22T21:26:29.778Z,8.03
2019-05-22T21:29:04.792Z,7.50
2019-05-22T21:34:13.283Z,9.05
2019-05-22T21:36:48.276Z,11.10
2019-05-22T21:39:23.887Z,8.23
2019-05-22T21:41:58.290Z,8.90
2019-05-22T21:44:32.964Z,7.53
2019-05-22T21:47:07.701Z,9.50
2019-05-22T21:49:43.287Z,7.70
2019-05-22T21:52:17.857Z,7.50
2019-05-22T21:57:25.559Z,8.07
2019-05-22T22:00:00.317Z,7.17
2019-05-22T22:02:39.581Z,7.10
2019-05-22T22:05:14.582Z,7.40
2019-05-22T22:07:49.539Z,7.93
2019-05-22T22:10:24.731Z,7.50
2019-05-22T22:12:59.284Z,9.63
2019-05-22T22:15:41.574Z,15.90
2019-05-22T22:18:18.319Z,8.70
2019-05-22T22:20:53.286Z,9.63
2019-05-22T22:23:28.312Z,7.80
2019-05-22T22:26:03.604Z,8.97
2019-05-22T22:28:40.592Z,7.80
2019-05-22T22:31:18.490Z,10.30
2019-05-22T22:34:01.537Z,6.70
2019-05-22T22:36:36.670Z,7.58
2019-05-22T22:39:15.273Z,6.53
2019-05-22T22:41:53.917Z,6.37
2019-05-22T22:44:28.773Z,11.73
2019-05-22T22:49:47.281Z,8.57
2019-05-22T22:52:22.787Z,10.30
2019-05-22T22:57:31.380Z,7.47
2019-05-22T23:00:08.513Z,8.93
2019-05-22T23:02:46.432Z,6.35
2019-05-22T23:05:21.279Z,6.37
2019-05-22T23:07:57.284Z,6.90
2019-05-22T23:10:33.089Z,7.13
2019-05-22T23:13:08.701Z,7.67
2019-05-22T23:15:44.990Z,6.28
2019-05-22T23:19:07.276Z,7.03
2019-05-22T23:21:40.348Z,6.93
2019-05-22T23:24:13.316Z,7.73
2019-05-22T23:26:47.877Z,6.00
2019-05-22T23:29:22.712Z,5.63
2019-05-22T23:31:59.337Z,9.33
2019-05-22T23:34:34.286Z,5.73
2019-05-22T23:37:11.267Z,7.92
2019-05-22T23:39:47.950Z,5.73
2019-05-22T23:44:31.947Z,6.60
2019-05-22T23:47:07.873Z,9.10
2019-05-22T23:52:18.393Z,6.30
2019-05-22T23:54:54.302Z,7.22
2019-05-22T23:57:29.564Z,6.17
